sensor_id;sensor_type;location;lat;lon;timestamp;P1;durP1;ratioP1;P2;durP2;ratioP2
16177;SDS011;8195;51.220;9.746;2024-01-15T00:04:06;28.97;;;17.60;;
16177;SDS011;8195;51.220;9.746;2024-01-15T00:08:27;29.33;;;17.30;;
16177;SDS011;8195;51.220;9.746;2024-01-15T00:12:47;25.90;;;17.20;;
16177;SDS011;8195;51.220;9.746;2024-01-15T00:17:07;29.90;;;17.43;;
16177;SDS011;8195;51.220;9.746;2024-01-15T00:21:27;25.37;;;16.50;;
16177;SDS011;8195;51.220;9.746;2024-01-15T00:25:48;27.00;;;17.23;;
16177;SDS011;8195;51.220;9.746;2024-01-15T00:30:10;25.67;;;15.73;;
16177;SDS011;8195;51.220;9.746;2024-01-15T00:34:31;24.60;;;15.73;;
16177;SDS011;8195;51.220;9.746;2024-01-15T00:38:52;26.70;;;16.67;;
16177;SDS011;8195;51.220;9.746;2024-01-15T00:43:13;26.03;;;16.93;;
16177;SDS011;8195;51.220;9.746;2024-01-15T00:47:33;26.40;;;16.83;;
16177;SDS011;8195;51.220;9.746;2024-01-15T00:51:54;23.40;;;14.50;;
16177;SDS011;8195;51.220;9.746;2024-01-15T00:56:14;20.23;;;13.30;;
16177;SDS011;8195;51.220;9.746;2024-01-15T01:00:34;21.13;;;14.37;;
16177;SDS011;8195;51.220;9.746;2024-01-15T01:04:55;19.17;;;13.47;;
16177;SDS011;8195;51.220;9.746;2024-01-15T01:09:15;21.03;;;13.13;;
16177;SDS011;8195;51.220;9.746;2024-01-15T01:13:35;23.60;;;14.30;;
16177;SDS011;8195;51.220;9.746;2024-01-15T01:17:56;20.10;;;13.70;;
16177;SDS011;8195;51.220;9.746;2024-01-15T01:22:16;20.93;;;14.27;;
16177;SDS011;8195;51.220;9.746;2024-01-15T01:26:36;20.63;;;13.47;;
16177;SDS011;8195;51.220;9.746;2024-01-15T01:30:57;20.17;;;13.93;;
16177;SDS011;8195;51.220;9.746;2024-01-15T01:35:17;21.00;;;13.07;;
16177;SDS011;8195;51.220;9.746;2024-01-15T01:39:37;18.80;;;12.40;;
16177;SDS011;8195;51.220;9.746;2024-01-15T01:43:58;16.83;;;11.67;;
16177;SDS011;8195;51.220;9.746;2024-01-15T01:48:18;16.50;;;11.63;;
16177;SDS011;8195;51.220;9.746;2024-01-15T01:52:38;21.30;;;12.90;;
16177;SDS011;8195;51.220;9.746;2024-01-15T01:56:59;19.30;;;12.83;;
16177;SDS011;8195;51.220;9.746;2024-01-15T02:01:22;18.87;;;12.80;;
16177;SDS011;8195;51.220;9.746;2024-01-15T02:05:43;17.60;;;12.37;;
16177;SDS011;8195;51.220;9.746;2024-01-15T02:10:03;18.57;;;12.63;;
16177;SDS011;8195;51.220;9.746;2024-01-15T02:14:24;18.40;;;12.13;;
16177;SDS011;8195;51.220;9.746;2024-01-15T02:18:45;17.03;;;12.53;;
16177;SDS011;8195;51.220;9.746;2024-01-15T02:23:15;18.50;;;12.27;;
16177;SDS011;8195;51.220;9.746;2024-01-15T02:27:35;16.63;;;11.57;;
16177;SDS011;8195;51.220;9.746;2024-01-15T02:31:56;18.97;;;12.27;;
16177;SDS011;8195;51.220;9.746;2024-01-15T02:36:16;18.87;;;12.07;;
16177;SDS011;8195;51.220;9.746;2024-01-15T02:40:38;15.30;;;12.17;;
16177;SDS011;8195;51.220;9.746;2024-01-15T02:44:58;18.07;;;11.83;;
16177;SDS011;8195;51.220;9.746;2024-01-15T02:49:19;16.67;;;11.40;;
16177;SDS011;8195;51.220;9.746;2024-01-15T02:53:39;16.70;;;12.53;;
16177;SDS011;8195;51.220;9.746;2024-01-15T02:58:00;18.40;;;11.73;;
16177;SDS011;8195;51.220;9.746;2024-01-15T03:02:21;16.23;;;11.17;;
16177;SDS011;8195;51.220;9.746;2024-01-15T03:06:41;15.57;;;11.27;;
16177;SDS011;8195;51.220;9.746;2024-01-15T03:11:01;14.57;;;11.80;;
16177;SDS011;8195;51.220;9.746;2024-01-15T03:15:22;15.57;;;10.90;;
16177;SDS011;8195;51.220;9.746;2024-01-15T03:19:42;18.43;;;11.47;;
16177;SDS011;8195;51.220;9.746;2024-01-15T03:24:02;17.00;;;11.57;;
16177;SDS011;8195;51.220;9.746;2024-01-15T03:28:23;17.27;;;11.53;;
16177;SDS011;8195;51.220;9.746;2024-01-15T03:32:43;19.90;;;12.00;;
16177;SDS011;8195;51.220;9.746;2024-01-15T03:37:03;17.27;;;11.53;;
16177;SDS011;8195;51.220;9.746;2024-01-15T03:41:24;16.70;;;10.63;;
16177;SDS011;8195;51.220;9.746;2024-01-15T03:45:44;15.63;;;11.10;;
16177;SDS011;8195;51.220;9.746;2024-01-15T03:50:04;14.43;;;10.77;;
16177;SDS011;8195;51.220;9.746;2024-01-15T03:54:25;16.70;;;11.47;;
16177;SDS011;8195;51.220;9.746;2024-01-15T03:58:45;14.83;;;11.40;;
16177;SDS011;8195;51.220;9.746;2024-01-15T04:03:05;14.33;;;10.47;;
16177;SDS011;8195;51.220;9.746;2024-01-15T04:07:26;14.47;;;10.13;;
16177;SDS011;8195;51.220;9.746;2024-01-15T04:11:46;16.37;;;11.67;;
16177;SDS011;8195;51.220;9.746;2024-01-15T04:16:06;14.43;;;11.07;;
16177;SDS011;8195;51.220;9.746;2024-01-15T04:20:26;15.20;;;10.90;;
16177;SDS011;8195;51.220;9.746;2024-01-15T04:24:47;16.43;;;11.30;;
16177;SDS011;8195;51.220;9.746;2024-01-15T04:29:07;15.10;;;11.07;;
16177;SDS011;8195;51.220;9.746;2024-01-15T04:33:27;14.27;;;10.50;;
16177;SDS011;8195;51.220;9.746;2024-01-15T04:37:48;15.27;;;10.93;;
16177;SDS011;8195;51.220;9.746;2024-01-15T04:42:08;16.37;;;11.03;;
16177;SDS011;8195;51.220;9.746;2024-01-15T04:46:28;14.93;;;10.10;;
16177;SDS011;8195;51.220;9.746;2024-01-15T04:50:49;14.33;;;10.53;;
16177;SDS011;8195;51.220;9.746;2024-01-15T04:55:09;11.70;;;9.83;;
16177;SDS011;8195;51.220;9.746;2024-01-15T04:59:29;12.70;;;9.53;;
16177;SDS011;8195;51.220;9.746;2024-01-15T05:03:50;14.40;;;10.43;;
16177;SDS011;8195;51.220;9.746;2024-01-15T05:08:10;15.00;;;10.47;;
16177;SDS011;8195;51.220;9.746;2024-01-15T05:12:30;14.33;;;10.53;;
16177;SDS011;8195;51.220;9.746;2024-01-15T05:16:51;14.80;;;9.83;;
16177;SDS011;8195;51.220;9.746;2024-01-15T05:21:11;13.20;;;10.60;;
16177;SDS011;8195;51.220;9.746;2024-01-15T05:25:31;15.50;;;10.07;;
16177;SDS011;8195;51.220;9.746;2024-01-15T05:29:52;14.40;;;9.90;;
16177;SDS011;8195;51.220;9.746;2024-01-15T05:34:12;13.40;;;9.17;;
16177;SDS011;8195;51.220;9.746;2024-01-15T05:38:32;13.47;;;9.40;;
16177;SDS011;8195;51.220;9.746;2024-01-15T05:42:53;13.23;;;9.50;;
16177;SDS011;8195;51.220;9.746;2024-01-15T05:47:13;13.93;;;9.30;;
16177;SDS011;8195;51.220;9.746;2024-01-15T05:51:33;13.13;;;9.57;;
16177;SDS011;8195;51.220;9.746;2024-01-15T05:55:53;14.20;;;9.40;;
16177;SDS011;8195;51.220;9.746;2024-01-15T06:00:14;13.97;;;8.93;;
16177;SDS011;8195;51.220;9.746;2024-01-15T06:04:35;12.07;;;9.63;;
16177;SDS011;8195;51.220;9.746;2024-01-15T06:08:55;14.70;;;9.80;;
16177;SDS011;8195;51.220;9.746;2024-01-15T06:13:16;13.57;;;10.17;;
16177;SDS011;8195;51.220;9.746;2024-01-15T06:17:37;13.53;;;9.80;;
16177;SDS011;8195;51.220;9.746;2024-01-15T06:21:57;14.37;;;10.07;;
16177;SDS011;8195;51.220;9.746;2024-01-15T06:26:17;15.93;;;11.30;;
16177;SDS011;8195;51.220;9.746;2024-01-15T06:30:37;13.40;;;10.50;;
16177;SDS011;8195;51.220;9.746;2024-01-15T06:34:58;19.17;;;11.07;;
16177;SDS011;8195;51.220;9.746;2024-01-15T06:39:18;17.10;;;10.83;;
16177;SDS011;8195;51.220;9.746;2024-01-15T06:43:38;14.70;;;11.07;;
16177;SDS011;8195;51.220;9.746;2024-01-15T06:47:59;15.83;;;10.00;;
16177;SDS011;8195;51.220;9.746;2024-01-15T06:52:19;16.27;;;10.83;;
16177;SDS011;8195;51.220;9.746;2024-01-15T06:56:39;14.00;;;9.97;;
16177;SDS011;8195;51.220;9.746;2024-01-15T07:01:00;15.27;;;9.83;;
16177;SDS011;8195;51.220;9.746;2024-01-15T07:05:20;14.80;;;10.33;;
16177;SDS011;8195;51.220;9.746;2024-01-15T07:09:41;14.03;;;9.50;;
16177;SDS011;8195;51.220;9.746;2024-01-15T07:14:01;15.53;;;9.77;;
16177;SDS011;8195;51.220;9.746;2024-01-15T07:18:21;15.37;;;9.93;;
16177;SDS011;8195;51.220;9.746;2024-01-15T07:22:42;13.40;;;9.90;;
16177;SDS011;8195;51.220;9.746;2024-01-15T07:27:02;14.30;;;9.47;;
16177;SDS011;8195;51.220;9.746;2024-01-15T07:31:22;16.30;;;10.27;;
16177;SDS011;8195;51.220;9.746;2024-01-15T07:35:43;13.53;;;10.03;;
16177;SDS011;8195;51.220;9.746;2024-01-15T07:40:03;14.40;;;10.33;;
16177;SDS011;8195;51.220;9.746;2024-01-15T07:44:24;17.43;;;10.93;;
16177;SDS011;8195;51.220;9.746;2024-01-15T07:48:44;15.07;;;11.10;;
16177;SDS011;8195;51.220;9.746;2024-01-15T07:53:04;16.77;;;10.77;;
16177;SDS011;8195;51.220;9.746;2024-01-15T07:57:25;16.53;;;10.73;;
16177;SDS011;8195;51.220;9.746;2024-01-15T08:01:45;16.93;;;11.07;;
16177;SDS011;8195;51.220;9.746;2024-01-15T08:06:06;14.80;;;10.13;;
16177;SDS011;8195;51.220;9.746;2024-01-15T08:10:26;16.33;;;10.60;;
16177;SDS011;8195;51.220;9.746;2024-01-15T08:14:46;15.20;;;10.13;;
16177;SDS011;8195;51.220;9.746;2024-01-15T08:19:07;18.00;;;11.27;;
16177;SDS011;8195;51.220;9.746;2024-01-15T08:23:27;17.73;;;10.60;;
16177;SDS011;8195;51.220;9.746;2024-01-15T08:27:48;19.30;;;10.67;;
16177;SDS011;8195;51.220;9.746;2024-01-15T08:32:08;18.73;;;11.47;;
16177;SDS011;8195;51.220;9.746;2024-01-15T08:36:28;14.60;;;11.03;;
16177;SDS011;8195;51.220;9.746;2024-01-15T08:40:49;15.37;;;11.07;;
16177;SDS011;8195;51.220;9.746;2024-01-15T08:45:09;16.47;;;12.00;;
16177;SDS011;8195;51.220;9.746;2024-01-15T08:49:29;15.87;;;11.00;;
16177;SDS011;8195;51.220;9.746;2024-01-15T08:53:50;16.83;;;12.10;;
16177;SDS011;8195;51.220;9.746;2024-01-15T08:58:10;17.53;;;12.10;;
16177;SDS011;8195;51.220;9.746;2024-01-15T09:02:30;17.37;;;11.30;;
16177;SDS011;8195;51.220;9.746;2024-01-15T09:06:51;19.67;;;12.13;;
16177;SDS011;8195;51.220;9.746;2024-01-15T09:11:11;17.83;;;11.70;;
16177;SDS011;8195;51.220;9.746;2024-01-15T09:15:31;19.47;;;11.43;;
16177;SDS011;8195;51.220;9.746;2024-01-15T09:19:52;16.63;;;11.53;;
16177;SDS011;8195;51.220;9.746;2024-01-15T09:24:12;17.10;;;11.27;;
16177;SDS011;8195;51.220;9.746;2024-01-15T09:28:32;18.57;;;11.67;;
16177;SDS011;8195;51.220;9.746;2024-01-15T09:32:52;15.87;;;10.50;;
16177;SDS011;8195;51.220;9.746;2024-01-15T09:37:16;16.40;;;10.87;;
16177;SDS011;8195;51.220;9.746;2024-01-15T09:41:37;15.33;;;11.07;;
16177;SDS011;8195;51.220;9.746;2024-01-15T09:45:57;16.00;;;10.63;;
16177;SDS011;8195;51.220;9.746;2024-01-15T09:50:17;16.00;;;11.60;;
16177;SDS011;8195;51.220;9.746;2024-01-15T09:54:38;18.70;;;12.03;;
16177;SDS011;8195;51.220;9.746;2024-01-15T09:58:58;17.60;;;11.03;;
16177;SDS011;8195;51.220;9.746;2024-01-15T10:03:20;15.93;;;11.00;;
16177;SDS011;8195;51.220;9.746;2024-01-15T10:07:40;16.20;;;10.47;;
16177;SDS011;8195;51.220;9.746;2024-01-15T10:12:01;18.50;;;11.87;;
16177;SDS011;8195;51.220;9.746;2024-01-15T10:16:21;19.00;;;11.93;;
16177;SDS011;8195;51.220;9.746;2024-01-15T10:20:42;17.40;;;11.10;;
16177;SDS011;8195;51.220;9.746;2024-01-15T10:25:02;17.30;;;11.53;;
16177;SDS011;8195;51.220;9.746;2024-01-15T10:29:24;16.37;;;11.83;;
16177;SDS011;8195;51.220;9.746;2024-01-15T10:33:44;14.30;;;9.77;;
16177;SDS011;8195;51.220;9.746;2024-01-15T10:38:05;15.77;;;11.00;;
16177;SDS011;8195;51.220;9.746;2024-01-15T10:42:25;13.27;;;10.63;;
16177;SDS011;8195;51.220;9.746;2024-01-15T10:46:45;15.33;;;10.53;;
16177;SDS011;8195;51.220;9.746;2024-01-15T10:51:06;16.63;;;9.93;;
16177;SDS011;8195;51.220;9.746;2024-01-15T10:55:26;14.77;;;10.07;;
16177;SDS011;8195;51.220;9.746;2024-01-15T10:59:47;16.00;;;11.27;;
16177;SDS011;8195;51.220;9.746;2024-01-15T11:04:07;14.13;;;10.17;;
16177;SDS011;8195;51.220;9.746;2024-01-15T11:08:28;15.70;;;10.60;;
16177;SDS011;8195;51.220;9.746;2024-01-15T11:12:48;13.93;;;9.30;;
16177;SDS011;8195;51.220;9.746;2024-01-15T11:17:10;13.40;;;10.53;;
16177;SDS011;8195;51.220;9.746;2024-01-15T11:21:31;16.13;;;10.97;;
16177;SDS011;8195;51.220;9.746;2024-01-15T11:25:51;13.67;;;10.07;;
16177;SDS011;8195;51.220;9.746;2024-01-15T11:30:12;14.63;;;10.63;;
16177;SDS011;8195;51.220;9.746;2024-01-15T11:43:48;13.37;;;9.87;;
16177;SDS011;8195;51.220;9.746;2024-01-15T11:48:12;13.77;;;10.13;;
16177;SDS011;8195;51.220;9.746;2024-01-15T11:56:57;12.53;;;9.57;;
16177;SDS011;8195;51.220;9.746;2024-01-15T12:01:20;10.87;;;8.17;;
16177;SDS011;8195;51.220;9.746;2024-01-15T12:05:41;14.40;;;9.83;;
16177;SDS011;8195;51.220;9.746;2024-01-15T12:10:02;11.37;;;9.27;;
16177;SDS011;8195;51.220;9.746;2024-01-15T12:14:22;10.43;;;8.67;;
16177;SDS011;8195;51.220;9.746;2024-01-15T12:18:43;10.63;;;8.60;;
16177;SDS011;8195;51.220;9.746;2024-01-15T12:23:03;11.30;;;8.93;;
16177;SDS011;8195;51.220;9.746;2024-01-15T12:27:24;11.03;;;8.33;;
16177;SDS011;8195;51.220;9.746;2024-01-15T12:31:47;12.47;;;8.90;;
16177;SDS011;8195;51.220;9.746;2024-01-15T12:36:08;12.93;;;9.70;;
16177;SDS011;8195;51.220;9.746;2024-01-15T12:40:28;13.23;;;8.20;;
16177;SDS011;8195;51.220;9.746;2024-01-15T12:44:49;10.33;;;7.70;;
16177;SDS011;8195;51.220;9.746;2024-01-15T12:49:09;10.20;;;7.60;;
16177;SDS011;8195;51.220;9.746;2024-01-15T12:53:30;10.70;;;8.47;;
16177;SDS011;8195;51.220;9.746;2024-01-15T12:57:50;10.30;;;8.23;;
16177;SDS011;8195;51.220;9.746;2024-01-15T13:02:11;12.37;;;8.30;;
16177;SDS011;8195;51.220;9.746;2024-01-15T13:06:31;12.07;;;7.70;;
16177;SDS011;8195;51.220;9.746;2024-01-15T13:10:52;11.77;;;8.27;;
16177;SDS011;8195;51.220;9.746;2024-01-15T13:15:12;8.83;;;7.60;;
16177;SDS011;8195;51.220;9.746;2024-01-15T13:19:33;11.43;;;8.30;;
16177;SDS011;8195;51.220;9.746;2024-01-15T13:23:53;9.47;;;7.50;;
16177;SDS011;8195;51.220;9.746;2024-01-15T13:28:13;9.77;;;7.53;;
16177;SDS011;8195;51.220;9.746;2024-01-15T13:32:33;10.60;;;7.43;;
16177;SDS011;8195;51.220;9.746;2024-01-15T13:36:54;9.90;;;8.00;;
16177;SDS011;8195;51.220;9.746;2024-01-15T13:41:14;8.37;;;6.67;;
16177;SDS011;8195;51.220;9.746;2024-01-15T13:45:34;8.37;;;6.30;;
16177;SDS011;8195;51.220;9.746;2024-01-15T13:49:55;6.53;;;5.90;;
16177;SDS011;8195;51.220;9.746;2024-01-15T13:54:15;8.60;;;5.53;;
16177;SDS011;8195;51.220;9.746;2024-01-15T13:58:35;5.70;;;5.07;;
16177;SDS011;8195;51.220;9.746;2024-01-15T14:02:56;7.23;;;4.87;;
16177;SDS011;8195;51.220;9.746;2024-01-15T14:07:16;4.90;;;3.37;;
16177;SDS011;8195;51.220;9.746;2024-01-15T14:11:36;5.10;;;3.80;;
16177;SDS011;8195;51.220;9.746;2024-01-15T14:15:57;5.50;;;4.00;;
16177;SDS011;8195;51.220;9.746;2024-01-15T14:20:17;6.73;;;4.73;;
16177;SDS011;8195;51.220;9.746;2024-01-15T14:24:37;5.63;;;4.50;;
16177;SDS011;8195;51.220;9.746;2024-01-15T14:28:58;7.20;;;4.60;;
16177;SDS011;8195;51.220;9.746;2024-01-15T14:33:18;5.40;;;4.60;;
16177;SDS011;8195;51.220;9.746;2024-01-15T14:37:39;4.83;;;3.10;;
16177;SDS011;8195;51.220;9.746;2024-01-15T14:41:59;3.27;;;2.90;;
16177;SDS011;8195;51.220;9.746;2024-01-15T14:46:20;4.33;;;2.93;;
16177;SDS011;8195;51.220;9.746;2024-01-15T14:50:40;2.93;;;2.57;;
16177;SDS011;8195;51.220;9.746;2024-01-15T14:55:01;3.30;;;2.40;;
16177;SDS011;8195;51.220;9.746;2024-01-15T14:59:21;2.80;;;2.33;;
16177;SDS011;8195;51.220;9.746;2024-01-15T15:03:42;3.50;;;2.50;;
16177;SDS011;8195;51.220;9.746;2024-01-15T15:08:02;4.07;;;2.97;;
16177;SDS011;8195;51.220;9.746;2024-01-15T15:12:22;3.27;;;2.63;;
16177;SDS011;8195;51.220;9.746;2024-01-15T15:16:43;4.73;;;2.57;;
16177;SDS011;8195;51.220;9.746;2024-01-15T15:21:03;3.63;;;2.80;;
16177;SDS011;8195;51.220;9.746;2024-01-15T15:25:24;6.07;;;3.70;;
16177;SDS011;8195;51.220;9.746;2024-01-15T15:29:44;4.57;;;3.23;;
16177;SDS011;8195;51.220;9.746;2024-01-15T15:34:04;3.87;;;3.37;;
16177;SDS011;8195;51.220;9.746;2024-01-15T15:38:24;5.23;;;3.80;;
16177;SDS011;8195;51.220;9.746;2024-01-15T15:42:45;4.57;;;3.00;;
16177;SDS011;8195;51.220;9.746;2024-01-15T15:47:05;3.53;;;3.17;;
16177;SDS011;8195;51.220;9.746;2024-01-15T15:51:25;3.70;;;3.00;;
16177;SDS011;8195;51.220;9.746;2024-01-15T15:55:46;4.07;;;3.30;;
16177;SDS011;8195;51.220;9.746;2024-01-15T16:00:06;5.23;;;3.50;;
16177;SDS011;8195;51.220;9.746;2024-01-15T16:04:27;4.27;;;3.60;;
16177;SDS011;8195;51.220;9.746;2024-01-15T16:08:47;5.07;;;3.30;;
16177;SDS011;8195;51.220;9.746;2024-01-15T16:13:07;4.70;;;3.60;;
16177;SDS011;8195;51.220;9.746;2024-01-15T16:17:28;5.17;;;3.20;;
16177;SDS011;8195;51.220;9.746;2024-01-15T16:21:51;4.70;;;3.73;;
16177;SDS011;8195;51.220;9.746;2024-01-15T16:26:11;4.87;;;3.80;;
16177;SDS011;8195;51.220;9.746;2024-01-15T16:30:32;5.03;;;3.97;;
16177;SDS011;8195;51.220;9.746;2024-01-15T16:34:53;4.87;;;4.30;;
16177;SDS011;8195;51.220;9.746;2024-01-15T16:39:13;4.87;;;4.17;;
16177;SDS011;8195;51.220;9.746;2024-01-15T16:43:33;4.57;;;4.17;;
16177;SDS011;8195;51.220;9.746;2024-01-15T16:47:54;5.53;;;4.50;;
16177;SDS011;8195;51.220;9.746;2024-01-15T16:52:14;5.17;;;4.40;;
16177;SDS011;8195;51.220;9.746;2024-01-15T16:56:34;5.27;;;4.30;;
16177;SDS011;8195;51.220;9.746;2024-01-15T17:00:58;7.80;;;4.63;;
16177;SDS011;8195;51.220;9.746;2024-01-15T17:05:21;4.93;;;4.43;;
16177;SDS011;8195;51.220;9.746;2024-01-15T17:09:42;5.30;;;4.37;;
16177;SDS011;8195;51.220;9.746;2024-01-15T17:14:04;5.50;;;4.17;;
16177;SDS011;8195;51.220;9.746;2024-01-15T17:18:24;5.40;;;4.60;;
16177;SDS011;8195;51.220;9.746;2024-01-15T17:22:44;5.50;;;4.77;;
16177;SDS011;8195;51.220;9.746;2024-01-15T17:27:05;5.03;;;4.50;;
16177;SDS011;8195;51.220;9.746;2024-01-15T17:31:25;6.03;;;4.27;;
16177;SDS011;8195;51.220;9.746;2024-01-15T17:35:52;4.90;;;4.40;;
16177;SDS011;8195;51.220;9.746;2024-01-15T17:40:13;4.50;;;4.10;;
16177;SDS011;8195;51.220;9.746;2024-01-15T17:44:34;5.00;;;4.50;;
16177;SDS011;8195;51.220;9.746;2024-01-15T17:48:54;7.10;;;5.10;;
16177;SDS011;8195;51.220;9.746;2024-01-15T17:53:14;6.07;;;5.10;;
16177;SDS011;8195;51.220;9.746;2024-01-15T17:57:35;6.00;;;4.63;;
16177;SDS011;8195;51.220;9.746;2024-01-15T18:01:55;5.83;;;5.07;;
16177;SDS011;8195;51.220;9.746;2024-01-15T18:06:16;5.60;;;4.80;;
16177;SDS011;8195;51.220;9.746;2024-01-15T18:10:36;8.43;;;5.07;;
16177;SDS011;8195;51.220;9.746;2024-01-15T18:14:56;7.73;;;5.37;;
16177;SDS011;8195;51.220;9.746;2024-01-15T18:19:17;6.97;;;5.10;;
16177;SDS011;8195;51.220;9.746;2024-01-15T18:23:37;8.67;;;5.27;;
16177;SDS011;8195;51.220;9.746;2024-01-15T18:27:57;6.70;;;5.50;;
16177;SDS011;8195;51.220;9.746;2024-01-15T18:32:18;6.47;;;4.87;;
16177;SDS011;8195;51.220;9.746;2024-01-15T18:36:38;7.00;;;4.93;;
16177;SDS011;8195;51.220;9.746;2024-01-15T18:40:59;5.43;;;4.77;;
16177;SDS011;8195;51.220;9.746;2024-01-15T18:45:20;8.40;;;5.23;;
16177;SDS011;8195;51.220;9.746;2024-01-15T18:49:43;6.13;;;4.37;;
16177;SDS011;8195;51.220;9.746;2024-01-15T18:54:03;6.57;;;4.70;;
16177;SDS011;8195;51.220;9.746;2024-01-15T18:58:24;8.40;;;4.63;;
16177;SDS011;8195;51.220;9.746;2024-01-15T19:02:44;9.37;;;5.20;;
16177;SDS011;8195;51.220;9.746;2024-01-15T19:07:05;8.73;;;5.27;;
16177;SDS011;8195;51.220;9.746;2024-01-15T19:11:20;7.03;;;4.43;;
16177;SDS011;8195;51.220;9.746;2024-01-15T19:15:40;5.93;;;4.80;;
16177;SDS011;8195;51.220;9.746;2024-01-15T19:20:01;6.07;;;4.70;;
16177;SDS011;8195;51.220;9.746;2024-01-15T19:24:21;9.10;;;5.97;;
16177;SDS011;8195;51.220;9.746;2024-01-15T19:28:42;5.27;;;4.47;;
16177;SDS011;8195;51.220;9.746;2024-01-15T19:33:02;5.90;;;4.30;;
16177;SDS011;8195;51.220;9.746;2024-01-15T19:37:22;8.17;;;5.20;;
16177;SDS011;8195;51.220;9.746;2024-01-15T19:41:43;7.73;;;3.93;;
16177;SDS011;8195;51.220;9.746;2024-01-15T19:46:03;7.17;;;4.50;;
16177;SDS011;8195;51.220;9.746;2024-01-15T19:50:23;6.83;;;4.23;;
16177;SDS011;8195;51.220;9.746;2024-01-15T19:54:44;6.60;;;3.63;;
16177;SDS011;8195;51.220;9.746;2024-01-15T19:59:04;9.37;;;4.10;;
16177;SDS011;8195;51.220;9.746;2024-01-15T20:03:25;6.93;;;4.60;;
16177;SDS011;8195;51.220;9.746;2024-01-15T20:07:45;5.87;;;4.13;;
16177;SDS011;8195;51.220;9.746;2024-01-15T20:12:07;6.60;;;4.77;;
16177;SDS011;8195;51.220;9.746;2024-01-15T20:16:27;4.90;;;4.40;;
16177;SDS011;8195;51.220;9.746;2024-01-15T20:20:48;4.77;;;4.23;;
16177;SDS011;8195;51.220;9.746;2024-01-15T20:25:08;4.83;;;4.00;;
16177;SDS011;8195;51.220;9.746;2024-01-15T20:29:28;4.90;;;4.30;;
16177;SDS011;8195;51.220;9.746;2024-01-15T20:33:49;10.40;;;4.93;;
16177;SDS011;8195;51.220;9.746;2024-01-15T20:38:09;4.23;;;3.70;;
16177;SDS011;8195;51.220;9.746;2024-01-15T20:42:30;7.63;;;3.80;;
16177;SDS011;8195;51.220;9.746;2024-01-15T20:46:52;8.60;;;4.03;;
16177;SDS011;8195;51.220;9.746;2024-01-15T20:51:13;6.93;;;4.20;;
16177;SDS011;8195;51.220;9.746;2024-01-15T20:55:33;5.90;;;4.43;;
16177;SDS011;8195;51.220;9.746;2024-01-15T20:59:54;6.87;;;3.97;;
16177;SDS011;8195;51.220;9.746;2024-01-15T21:04:15;3.47;;;3.00;;
16177;SDS011;8195;51.220;9.746;2024-01-15T21:08:35;9.67;;;3.57;;
16177;SDS011;8195;51.220;9.746;2024-01-15T21:12:56;7.37;;;4.00;;
16177;SDS011;8195;51.220;9.746;2024-01-15T21:17:16;6.90;;;3.93;;
16177;SDS011;8195;51.220;9.746;2024-01-15T21:21:36;5.97;;;3.93;;
16177;SDS011;8195;51.220;9.746;2024-01-15T21:25:57;5.40;;;3.70;;
16177;SDS011;8195;51.220;9.746;2024-01-15T21:30:17;6.53;;;4.10;;
16177;SDS011;8195;51.220;9.746;2024-01-15T21:34:39;5.83;;;4.20;;
16177;SDS011;8195;51.220;9.746;2024-01-15T21:38:59;4.63;;;4.17;;
16177;SDS011;8195;51.220;9.746;2024-01-15T21:43:19;6.57;;;5.60;;
16177;SDS011;8195;51.220;9.746;2024-01-15T21:47:40;5.87;;;4.93;;
16177;SDS011;8195;51.220;9.746;2024-01-15T21:52:00;6.77;;;5.00;;
16177;SDS011;8195;51.220;9.746;2024-01-15T21:56:20;6.40;;;5.63;;
16177;SDS011;8195;51.220;9.746;2024-01-15T22:00:41;6.13;;;5.10;;
16177;SDS011;8195;51.220;9.746;2024-01-15T22:05:01;8.23;;;5.20;;
16177;SDS011;8195;51.220;9.746;2024-01-15T22:09:22;5.03;;;4.37;;
16177;SDS011;8195;51.220;9.746;2024-01-15T22:13:42;6.30;;;5.37;;
16177;SDS011;8195;51.220;9.746;2024-01-15T22:18:02;4.63;;;4.23;;
16177;SDS011;8195;51.220;9.746;2024-01-15T22:22:23;5.63;;;4.60;;
16177;SDS011;8195;51.220;9.746;2024-01-15T22:26:43;5.77;;;4.30;;
16177;SDS011;8195;51.220;9.746;2024-01-15T22:31:04;4.97;;;4.00;;
16177;SDS011;8195;51.220;9.746;2024-01-15T22:35:24;4.70;;;4.30;;
16177;SDS011;8195;51.220;9.746;2024-01-15T22:39:44;7.87;;;4.20;;
16177;SDS011;8195;51.220;9.746;2024-01-15T22:44:05;6.63;;;4.20;;
16177;SDS011;8195;51.220;9.746;2024-01-15T22:48:26;4.57;;;3.67;;
16177;SDS011;8195;51.220;9.746;2024-01-15T22:52:47;4.37;;;4.00;;
16177;SDS011;8195;51.220;9.746;2024-01-15T22:57:07;5.00;;;3.77;;
16177;SDS011;8195;51.220;9.746;2024-01-15T23:01:27;4.77;;;3.57;;
16177;SDS011;8195;51.220;9.746;2024-01-15T23:05:48;5.50;;;4.07;;
16177;SDS011;8195;51.220;9.746;2024-01-15T23:10:08;4.60;;;4.20;;
16177;SDS011;8195;51.220;9.746;2024-01-15T23:14:29;5.37;;;4.37;;
16177;SDS011;8195;51.220;9.746;2024-01-15T23:18:49;6.27;;;4.10;;
16177;SDS011;8195;51.220;9.746;2024-01-15T23:23:09;5.27;;;4.77;;
16177;SDS011;8195;51.220;9.746;2024-01-15T23:27:30;4.17;;;3.83;;
16177;SDS011;8195;51.220;9.746;2024-01-15T23:31:50;4.47;;;4.07;;
16177;SDS011;8195;51.220;9.746;2024-01-15T23:36:10;4.40;;;4.00;;
16177;SDS011;8195;51.220;9.746;2024-01-15T23:40:31;6.10;;;4.30;;
16177;SDS011;8195;51.220;9.746;2024-01-15T23:44:51;6.70;;;4.20;;
16177;SDS011;8195;51.220;9.746;2024-01-15T23:49:11;6.47;;;3.97;;
16177;SDS011;8195;51.220;9.746;2024-01-15T23:53:32;6.53;;;4.07;;
16177;SDS011;8195;51.220;9.746;2024-01-15T23:57:52;6.60;;;4.10;;
